sensor_id;sensor_type;location;lat;lon;timestamp;pressure;altitude;pressure_sealevel;temperature;humidity
69027;BME280;56080;47.594;19.116;2023-02-11T00:07:48;102262;;;-2.53;79.03
69027;BME280;56080;47.594;19.116;2023-02-11T00:17:48;102249;;;-2.30;77.72
69027;BME280;56080;47.594;19.116;2023-02-11T00:27:48;102255;;;-2.50;76.63
69027;BME280;56080;47.594;19.116;2023-02-11T00:37:48;102233;;;-3.13;77.01
69027;BME280;56080;47.594;19.116;2023-02-11T00:47:48;102245;;;-3.23;77.68
69027;BME280;56080;47.594;19.116;2023-02-11T00:57:48;102225;;;-3.42;79.95
69027;BME280;56080;47.594;19.116;2023-02-11T01:07:48;102212;;;-3.60;80.78
69027;BME280;56080;47.594;19.116;2023-02-11T01:17:48;102203;;;-3.31;80.13
69027;BME280;56080;47.594;19.116;2023-02-11T01:27:48;102179;;;-3.42;79.79
69027;BME280;56080;47.594;19.116;2023-02-11T01:37:48;102181;;;-3.68;79.01
69027;BME280;56080;47.594;19.116;2023-02-11T01:47:48;102179;;;-3.88;80.45
69027;BME280;56080;47.594;19.116;2023-02-11T01:57:49;102178;;;-3.88;81.32
69027;BME280;56080;47.594;19.116;2023-02-11T02:17:52;102173;;;-4.16;81.21
69027;BME280;56080;47.594;19.116;2023-02-11T02:27:49;102185;;;-4.01;81.76
69027;BME280;56080;47.594;19.116;2023-02-11T02:47:46;102157;;;-4.10;80.99
69027;BME280;56080;47.594;19.116;2023-02-11T02:57:54;102152;;;-4.04;81.52
69027;BME280;56080;47.594;19.116;2023-02-11T03:07:51;102156;;;-4.25;80.47
69027;BME280;56080;47.594;19.116;2023-02-11T03:17:47;102140;;;-4.38;80.78
69027;BME280;56080;47.594;19.116;2023-02-11T03:27:49;102127;;;-4.28;82.07
69027;BME280;56080;47.594;19.116;2023-02-11T03:47:47;102106;;;-4.39;81.53
69027;BME280;56080;47.594;19.116;2023-02-11T03:57:45;102091;;;-4.60;82.70
69027;BME280;56080;47.594;19.116;2023-02-11T04:07:45;102076;;;-4.19;84.37
69027;BME280;56080;47.594;19.116;2023-02-11T04:17:45;102063;;;-3.77;83.34
69027;BME280;56080;47.594;19.116;2023-02-11T04:27:45;102060;;;-3.75;82.81
69027;BME280;56080;47.594;19.116;2023-02-11T04:37:44;102059;;;-3.79;82.55
69027;BME280;56080;47.594;19.116;2023-02-11T04:47:44;102055;;;-3.82;83.87
69027;BME280;56080;47.594;19.116;2023-02-11T04:57:44;102060;;;-4.11;82.43
69027;BME280;56080;47.594;19.116;2023-02-11T05:07:44;102064;;;-4.62;82.13
69027;BME280;56080;47.594;19.116;2023-02-11T05:17:44;102063;;;-4.65;84.66
69027;BME280;56080;47.594;19.116;2023-02-11T05:27:43;102062;;;-4.53;86.38
69027;BME280;56080;47.594;19.116;2023-02-11T05:37:43;102056;;;-4.51;86.89
69027;BME280;56080;47.594;19.116;2023-02-11T05:47:43;102037;;;-4.67;87.41
69027;BME280;56080;47.594;19.116;2023-02-11T05:57:43;102038;;;-4.66;87.30
69027;BME280;56080;47.594;19.116;2023-02-11T06:07:43;102042;;;-4.70;84.40
69027;BME280;56080;47.594;19.116;2023-02-11T06:17:42;102035;;;-4.43;86.16
69027;BME280;56080;47.594;19.116;2023-02-11T06:27:43;102022;;;-4.63;87.04
69027;BME280;56080;47.594;19.116;2023-02-11T06:37:42;102028;;;-4.44;85.66
69027;BME280;56080;47.594;19.116;2023-02-11T06:47:42;102035;;;-4.22;85.55
69027;BME280;56080;47.594;19.116;2023-02-11T06:57:42;102020;;;-4.27;85.71
69027;BME280;56080;47.594;19.116;2023-02-11T07:07:42;102019;;;-3.78;84.82
69027;BME280;56080;47.594;19.116;2023-02-11T07:17:42;102013;;;-3.26;82.93
69027;BME280;56080;47.594;19.116;2023-02-11T07:27:42;102013;;;-2.83;82.43
69027;BME280;56080;47.594;19.116;2023-02-11T07:37:41;102003;;;-2.44;82.36
69027;BME280;56080;47.594;19.116;2023-02-11T07:47:41;101997;;;-2.18;82.36
69027;BME280;56080;47.594;19.116;2023-02-11T07:57:41;101989;;;-2.05;81.88
69027;BME280;56080;47.594;19.116;2023-02-11T08:07:41;101980;;;-1.74;80.48
69027;BME280;56080;47.594;19.116;2023-02-11T08:17:41;101984;;;-1.44;80.09
69027;BME280;56080;47.594;19.116;2023-02-11T08:27:41;101978;;;-1.24;79.28
69027;BME280;56080;47.594;19.116;2023-02-11T08:37:41;101991;;;-0.98;79.52
69027;BME280;56080;47.594;19.116;2023-02-11T08:47:42;101990;;;-0.61;78.53
69027;BME280;56080;47.594;19.116;2023-02-11T08:57:41;101985;;;0.40;73.58
69027;BME280;56080;47.594;19.116;2023-02-11T09:07:42;101977;;;1.23;70.82
69027;BME280;56080;47.594;19.116;2023-02-11T09:17:42;101965;;;1.85;68.50
69027;BME280;56080;47.594;19.116;2023-02-11T09:27:42;101963;;;2.78;66.21
69027;BME280;56080;47.594;19.116;2023-02-11T09:37:42;101960;;;3.04;63.58
69027;BME280;56080;47.594;19.116;2023-02-11T09:57:43;101926;;;4.19;56.41
69027;BME280;56080;47.594;19.116;2023-02-11T10:17:58;101907;;;3.82;56.62
69027;BME280;56080;47.594;19.116;2023-02-11T10:27:44;101897;;;4.01;56.17
69027;BME280;56080;47.594;19.116;2023-02-11T10:37:46;101890;;;4.49;55.68
69027;BME280;56080;47.594;19.116;2023-02-11T10:47:45;101866;;;4.27;55.53
69027;BME280;56080;47.594;19.116;2023-02-11T10:57:51;101854;;;4.52;55.08
69027;BME280;56080;47.594;19.116;2023-02-11T11:07:52;101851;;;4.55;55.41
69027;BME280;56080;47.594;19.116;2023-02-11T11:17:47;101819;;;4.60;54.86
69027;BME280;56080;47.594;19.116;2023-02-11T11:27:48;101816;;;4.65;54.98
69027;BME280;56080;47.594;19.116;2023-02-11T11:37:51;101789;;;5.23;54.10
69027;BME280;56080;47.594;19.116;2023-02-11T11:47:53;101769;;;5.49;51.41
69027;BME280;56080;47.594;19.116;2023-02-11T11:57:48;101769;;;5.53;49.84
69027;BME280;56080;47.594;19.116;2023-02-11T12:18:01;101731;;;5.68;49.11
69027;BME280;56080;47.594;19.116;2023-02-11T12:28:08;101694;;;5.72;48.53
69027;BME280;56080;47.594;19.116;2023-02-11T12:57:53;101656;;;6.14;46.54
69027;BME280;56080;47.594;19.116;2023-02-11T13:07:54;101661;;;6.22;46.70
69027;BME280;56080;47.594;19.116;2023-02-11T13:28:16;101608;;;6.12;42.49
69027;BME280;56080;47.594;19.116;2023-02-11T13:37:54;101596;;;6.15;42.19
69027;BME280;56080;47.594;19.116;2023-02-11T13:47:57;101599;;;6.27;42.58
69027;BME280;56080;47.594;19.116;2023-02-11T14:17:55;101592;;;6.26;42.88
69027;BME280;56080;47.594;19.116;2023-02-11T14:28:15;101612;;;6.27;43.19
69027;BME280;56080;47.594;19.116;2023-02-11T14:48:03;101628;;;6.70;42.87
69027;BME280;56080;47.594;19.116;2023-02-11T14:58:06;101614;;;6.69;43.26
69027;BME280;56080;47.594;19.116;2023-02-11T15:07:59;101579;;;6.70;43.64
69027;BME280;56080;47.594;19.116;2023-02-11T15:17:59;101562;;;6.45;44.30
69027;BME280;56080;47.594;19.116;2023-02-11T15:28:09;101575;;;6.31;44.89
69027;BME280;56080;47.594;19.116;2023-02-11T15:38:00;101564;;;6.31;45.62
69027;BME280;56080;47.594;19.116;2023-02-11T15:58:03;101559;;;5.99;47.19
69027;BME280;56080;47.594;19.116;2023-02-11T16:18:03;101531;;;5.75;48.59
69027;BME280;56080;47.594;19.116;2023-02-11T16:38:05;101521;;;5.56;49.48
69027;BME280;56080;47.594;19.116;2023-02-11T16:48:06;101525;;;5.47;49.79
69027;BME280;56080;47.594;19.116;2023-02-11T16:58:05;101542;;;5.49;49.87
69027;BME280;56080;47.594;19.116;2023-02-11T17:08:05;101538;;;5.44;50.24
69027;BME280;56080;47.594;19.116;2023-02-11T17:18:08;101542;;;5.47;50.37
69027;BME280;56080;47.594;19.116;2023-02-11T17:28:06;101555;;;5.46;50.72
69027;BME280;56080;47.594;19.116;2023-02-11T17:38:06;101534;;;5.42;51.09
69027;BME280;56080;47.594;19.116;2023-02-11T17:48:06;101539;;;5.43;51.17
69027;BME280;56080;47.594;19.116;2023-02-11T17:58:09;101520;;;5.49;51.05
69027;BME280;56080;47.594;19.116;2023-02-11T18:08:09;101524;;;5.53;51.28
69027;BME280;56080;47.594;19.116;2023-02-11T18:18:08;101511;;;5.47;51.86
69027;BME280;56080;47.594;19.116;2023-02-11T18:28:09;101504;;;5.60;51.62
69027;BME280;56080;47.594;19.116;2023-02-11T18:38:10;101508;;;5.52;51.77
69027;BME280;56080;47.594;19.116;2023-02-11T18:48:09;101505;;;5.50;51.83
69027;BME280;56080;47.594;19.116;2023-02-11T18:58:12;101507;;;5.42;52.27
69027;BME280;56080;47.594;19.116;2023-02-11T19:08:12;101504;;;5.42;52.43
69027;BME280;56080;47.594;19.116;2023-02-11T19:18:11;101503;;;5.43;52.48
69027;BME280;56080;47.594;19.116;2023-02-11T19:28:11;101520;;;5.46;52.58
69027;BME280;56080;47.594;19.116;2023-02-11T19:38:12;101510;;;5.41;53.05
69027;BME280;56080;47.594;19.116;2023-02-11T19:48:13;101515;;;5.39;53.13
69027;BME280;56080;47.594;19.116;2023-02-11T19:58:12;101507;;;5.47;53.65
69027;BME280;56080;47.594;19.116;2023-02-11T20:18:13;101493;;;5.54;56.12
69027;BME280;56080;47.594;19.116;2023-02-11T20:28:13;101507;;;5.67;58.81
69027;BME280;56080;47.594;19.116;2023-02-11T20:38:14;101507;;;5.69;59.89
69027;BME280;56080;47.594;19.116;2023-02-11T20:48:14;101501;;;5.72;61.25
69027;BME280;56080;47.594;19.116;2023-02-11T20:58:15;101493;;;5.77;63.59
69027;BME280;56080;47.594;19.116;2023-02-11T21:08:15;101475;;;5.73;65.13
69027;BME280;56080;47.594;19.116;2023-02-11T21:18:15;101486;;;5.72;66.63
69027;BME280;56080;47.594;19.116;2023-02-11T21:28:16;101482;;;5.75;67.45
69027;BME280;56080;47.594;19.116;2023-02-11T21:38:17;101469;;;5.71;69.82
69027;BME280;56080;47.594;19.116;2023-02-11T21:48:16;101455;;;5.77;72.05
69027;BME280;56080;47.594;19.116;2023-02-11T21:58:17;101466;;;5.74;72.89
69027;BME280;56080;47.594;19.116;2023-02-11T22:08:20;101476;;;5.68;73.52
69027;BME280;56080;47.594;19.116;2023-02-11T22:18:18;101474;;;5.51;74.19
69027;BME280;56080;47.594;19.116;2023-02-11T22:28:18;101474;;;5.34;74.79
69027;BME280;56080;47.594;19.116;2023-02-11T22:38:19;101473;;;5.34;75.21
69027;BME280;56080;47.594;19.116;2023-02-11T22:48:23;101474;;;5.30;75.80
69027;BME280;56080;47.594;19.116;2023-02-11T22:58:20;101474;;;5.24;76.56
69027;BME280;56080;47.594;19.116;2023-02-11T23:08:20;101476;;;5.27;76.96
69027;BME280;56080;47.594;19.116;2023-02-11T23:18:21;101474;;;5.15;77.71
69027;BME280;56080;47.594;19.116;2023-02-11T23:28:21;101472;;;5.22;77.87
69027;BME280;56080;47.594;19.116;2023-02-11T23:38:21;101463;;;5.17;78.28
69027;BME280;56080;47.594;19.116;2023-02-11T23:48:22;101455;;;5.08;78.88
69027;BME280;56080;47.594;19.116;2023-02-11T23:58:22;101473;;;5.11;79.29
